sensor_id;sensor_type;location;lat;lon;timestamp;P1;durP1;ratioP1;P2;durP2;ratioP2
16506;SDS011;8366;51.020;7.642;2022-11-27T00:01:09;7.80;;;4.37;;
16506;SDS011;8366;51.020;7.642;2022-11-27T00:03:35;7.37;;;4.40;;
16506;SDS011;8366;51.020;7.642;2022-11-27T00:06:02;7.77;;;4.20;;
16506;SDS011;8366;51.020;7.642;2022-11-27T00:08:30;7.63;;;4.53;;
16506;SDS011;8366;51.020;7.642;2022-11-27T00:10:56;8.13;;;4.17;;
16506;SDS011;8366;51.020;7.642;2022-11-27T00:13:23;7.10;;;4.33;;
16506;SDS011;8366;51.020;7.642;2022-11-27T00:15:49;7.83;;;3.80;;
16506;SDS011;8366;51.020;7.642;2022-11-27T00:18:16;7.50;;;3.90;;
16506;SDS011;8366;51.020;7.642;2022-11-27T00:20:43;8.27;;;4.23;;
16506;SDS011;8366;51.020;7.642;2022-11-27T00:23:10;7.50;;;4.37;;
16506;SDS011;8366;51.020;7.642;2022-11-27T00:25:37;7.20;;;3.97;;
16506;SDS011;8366;51.020;7.642;2022-11-27T00:28:04;6.67;;;4.33;;
16506;SDS011;8366;51.020;7.642;2022-11-27T00:30:30;7.23;;;4.23;;
16506;SDS011;8366;51.020;7.642;2022-11-27T00:32:57;6.40;;;4.57;;
16506;SDS011;8366;51.020;7.642;2022-11-27T00:35:23;8.80;;;4.40;;
16506;SDS011;8366;51.020;7.642;2022-11-27T00:37:49;10.40;;;5.40;;
16506;SDS011;8366;51.020;7.642;2022-11-27T00:40:16;10.00;;;4.50;;
16506;SDS011;8366;51.020;7.642;2022-11-27T00:42:44;7.87;;;4.90;;
16506;SDS011;8366;51.020;7.642;2022-11-27T00:45:10;9.67;;;5.10;;
16506;SDS011;8366;51.020;7.642;2022-11-27T00:47:37;7.17;;;4.60;;
16506;SDS011;8366;51.020;7.642;2022-11-27T00:50:04;7.70;;;4.30;;
16506;SDS011;8366;51.020;7.642;2022-11-27T00:52:31;9.23;;;4.67;;
16506;SDS011;8366;51.020;7.642;2022-11-27T00:54:57;9.07;;;4.77;;
16506;SDS011;8366;51.020;7.642;2022-11-27T00:57:24;11.57;;;4.37;;
16506;SDS011;8366;51.020;7.642;2022-11-27T00:59:52;7.67;;;4.47;;
16506;SDS011;8366;51.020;7.642;2022-11-27T01:02:18;8.00;;;4.43;;
16506;SDS011;8366;51.020;7.642;2022-11-27T01:04:45;6.80;;;4.70;;
16506;SDS011;8366;51.020;7.642;2022-11-27T01:07:11;8.93;;;4.53;;
16506;SDS011;8366;51.020;7.642;2022-11-27T01:09:38;8.60;;;4.57;;
16506;SDS011;8366;51.020;7.642;2022-11-27T01:12:05;8.47;;;4.90;;
16506;SDS011;8366;51.020;7.642;2022-11-27T01:14:31;8.10;;;4.67;;
16506;SDS011;8366;51.020;7.642;2022-11-27T01:16:59;9.23;;;4.50;;
16506;SDS011;8366;51.020;7.642;2022-11-27T01:19:26;8.40;;;4.97;;
16506;SDS011;8366;51.020;7.642;2022-11-27T01:21:52;8.17;;;4.67;;
16506;SDS011;8366;51.020;7.642;2022-11-27T01:24:19;9.00;;;5.87;;
16506;SDS011;8366;51.020;7.642;2022-11-27T01:26:45;8.00;;;4.60;;
16506;SDS011;8366;51.020;7.642;2022-11-27T01:29:12;7.17;;;4.63;;
16506;SDS011;8366;51.020;7.642;2022-11-27T01:31:38;9.27;;;4.73;;
16506;SDS011;8366;51.020;7.642;2022-11-27T01:34:07;10.37;;;4.80;;
16506;SDS011;8366;51.020;7.642;2022-11-27T01:36:37;10.47;;;5.03;;
16506;SDS011;8366;51.020;7.642;2022-11-27T01:39:04;9.03;;;5.13;;
16506;SDS011;8366;51.020;7.642;2022-11-27T01:41:31;11.80;;;5.50;;
16506;SDS011;8366;51.020;7.642;2022-11-27T01:43:59;8.90;;;5.00;;
16506;SDS011;8366;51.020;7.642;2022-11-27T01:46:32;8.80;;;4.83;;
16506;SDS011;8366;51.020;7.642;2022-11-27T01:49:04;10.90;;;5.37;;
16506;SDS011;8366;51.020;7.642;2022-11-27T01:51:49;9.97;;;5.10;;
16506;SDS011;8366;51.020;7.642;2022-11-27T01:54:19;7.80;;;5.03;;
16506;SDS011;8366;51.020;7.642;2022-11-27T01:56:47;11.67;;;4.90;;
16506;SDS011;8366;51.020;7.642;2022-11-27T01:59:15;9.07;;;4.97;;
16506;SDS011;8366;51.020;7.642;2022-11-27T02:01:42;8.50;;;5.10;;
16506;SDS011;8366;51.020;7.642;2022-11-27T02:04:09;11.17;;;4.83;;
16506;SDS011;8366;51.020;7.642;2022-11-27T02:06:36;9.60;;;4.90;;
16506;SDS011;8366;51.020;7.642;2022-11-27T02:09:03;8.43;;;4.77;;
16506;SDS011;8366;51.020;7.642;2022-11-27T02:11:30;8.73;;;5.57;;
16506;SDS011;8366;51.020;7.642;2022-11-27T02:14:02;10.73;;;5.70;;
16506;SDS011;8366;51.020;7.642;2022-11-27T02:16:33;10.50;;;5.10;;
16506;SDS011;8366;51.020;7.642;2022-11-27T02:19:03;9.77;;;4.90;;
16506;SDS011;8366;51.020;7.642;2022-11-27T02:21:41;10.33;;;5.10;;
16506;SDS011;8366;51.020;7.642;2022-11-27T02:30:13;10.10;;;5.77;;
16506;SDS011;8366;51.020;7.642;2022-11-27T02:32:41;10.67;;;5.37;;
16506;SDS011;8366;51.020;7.642;2022-11-27T02:35:11;13.77;;;6.00;;
16506;SDS011;8366;51.020;7.642;2022-11-27T02:37:42;12.93;;;5.47;;
16506;SDS011;8366;51.020;7.642;2022-11-27T02:40:12;9.93;;;5.37;;
16506;SDS011;8366;51.020;7.642;2022-11-27T02:42:42;12.07;;;5.10;;
16506;SDS011;8366;51.020;7.642;2022-11-27T02:45:11;11.07;;;5.93;;
16506;SDS011;8366;51.020;7.642;2022-11-27T02:47:40;13.10;;;6.20;;
16506;SDS011;8366;51.020;7.642;2022-11-27T02:50:10;11.30;;;5.70;;
16506;SDS011;8366;51.020;7.642;2022-11-27T02:52:39;8.77;;;5.37;;
16506;SDS011;8366;51.020;7.642;2022-11-27T02:55:07;9.53;;;5.10;;
16506;SDS011;8366;51.020;7.642;2022-11-27T02:57:36;11.50;;;5.83;;
16506;SDS011;8366;51.020;7.642;2022-11-27T03:00:05;11.43;;;5.77;;
16506;SDS011;8366;51.020;7.642;2022-11-27T03:02:35;10.50;;;6.10;;
16506;SDS011;8366;51.020;7.642;2022-11-27T03:05:04;9.53;;;5.47;;
16506;SDS011;8366;51.020;7.642;2022-11-27T03:07:32;7.50;;;5.20;;
16506;SDS011;8366;51.020;7.642;2022-11-27T03:10:03;11.40;;;5.70;;
16506;SDS011;8366;51.020;7.642;2022-11-27T03:12:32;9.87;;;5.63;;
16506;SDS011;8366;51.020;7.642;2022-11-27T03:14:59;8.53;;;5.83;;
16506;SDS011;8366;51.020;7.642;2022-11-27T03:17:29;10.30;;;5.83;;
16506;SDS011;8366;51.020;7.642;2022-11-27T03:20:06;13.30;;;6.03;;
16506;SDS011;8366;51.020;7.642;2022-11-27T03:22:35;9.97;;;5.40;;
16506;SDS011;8366;51.020;7.642;2022-11-27T03:25:02;10.53;;;5.63;;
16506;SDS011;8366;51.020;7.642;2022-11-27T03:27:29;12.30;;;6.03;;
16506;SDS011;8366;51.020;7.642;2022-11-27T03:29:58;10.47;;;5.50;;
16506;SDS011;8366;51.020;7.642;2022-11-27T03:32:26;11.30;;;5.83;;
16506;SDS011;8366;51.020;7.642;2022-11-27T03:34:55;10.37;;;5.70;;
16506;SDS011;8366;51.020;7.642;2022-11-27T03:37:22;9.30;;;5.70;;
16506;SDS011;8366;51.020;7.642;2022-11-27T03:39:49;13.80;;;5.80;;
16506;SDS011;8366;51.020;7.642;2022-11-27T03:42:17;9.60;;;5.47;;
16506;SDS011;8366;51.020;7.642;2022-11-27T03:44:47;10.27;;;5.60;;
16506;SDS011;8366;51.020;7.642;2022-11-27T03:47:22;9.10;;;5.13;;
16506;SDS011;8366;51.020;7.642;2022-11-27T03:49:59;11.47;;;5.67;;
16506;SDS011;8366;51.020;7.642;2022-11-27T03:52:43;10.07;;;5.43;;
16506;SDS011;8366;51.020;7.642;2022-11-27T03:55:19;9.70;;;5.50;;
16506;SDS011;8366;51.020;7.642;2022-11-27T03:57:49;10.20;;;5.73;;
16506;SDS011;8366;51.020;7.642;2022-11-27T04:00:20;10.73;;;6.37;;
16506;SDS011;8366;51.020;7.642;2022-11-27T04:02:49;7.97;;;5.50;;
16506;SDS011;8366;51.020;7.642;2022-11-27T04:05:18;9.33;;;5.60;;
16506;SDS011;8366;51.020;7.642;2022-11-27T04:07:45;10.57;;;5.77;;
16506;SDS011;8366;51.020;7.642;2022-11-27T04:10:12;12.43;;;5.63;;
16506;SDS011;8366;51.020;7.642;2022-11-27T04:12:39;9.93;;;5.00;;
16506;SDS011;8366;51.020;7.642;2022-11-27T04:15:05;11.30;;;5.80;;
16506;SDS011;8366;51.020;7.642;2022-11-27T04:17:32;11.87;;;6.00;;
16506;SDS011;8366;51.020;7.642;2022-11-27T04:19:59;9.67;;;5.87;;
16506;SDS011;8366;51.020;7.642;2022-11-27T04:22:27;12.13;;;6.03;;
16506;SDS011;8366;51.020;7.642;2022-11-27T04:24:53;11.03;;;5.57;;
16506;SDS011;8366;51.020;7.642;2022-11-27T04:27:20;13.73;;;5.90;;
16506;SDS011;8366;51.020;7.642;2022-11-27T04:29:46;15.03;;;6.53;;
16506;SDS011;8366;51.020;7.642;2022-11-27T04:32:13;10.90;;;6.83;;
16506;SDS011;8366;51.020;7.642;2022-11-27T04:34:39;11.30;;;6.13;;
16506;SDS011;8366;51.020;7.642;2022-11-27T04:37:06;15.17;;;6.73;;
16506;SDS011;8366;51.020;7.642;2022-11-27T04:39:33;13.70;;;6.70;;
16506;SDS011;8366;51.020;7.642;2022-11-27T04:42:00;14.43;;;6.73;;
16506;SDS011;8366;51.020;7.642;2022-11-27T04:44:26;12.13;;;7.30;;
16506;SDS011;8366;51.020;7.642;2022-11-27T04:46:53;15.13;;;6.70;;
16506;SDS011;8366;51.020;7.642;2022-11-27T04:49:19;11.90;;;6.73;;
16506;SDS011;8366;51.020;7.642;2022-11-27T04:51:47;12.50;;;6.63;;
16506;SDS011;8366;51.020;7.642;2022-11-27T04:54:14;13.73;;;6.73;;
16506;SDS011;8366;51.020;7.642;2022-11-27T04:56:42;13.83;;;7.13;;
16506;SDS011;8366;51.020;7.642;2022-11-27T04:59:08;12.43;;;7.33;;
16506;SDS011;8366;51.020;7.642;2022-11-27T05:01:35;13.57;;;7.40;;
16506;SDS011;8366;51.020;7.642;2022-11-27T05:04:01;15.40;;;8.33;;
16506;SDS011;8366;51.020;7.642;2022-11-27T05:06:28;19.53;;;8.70;;
16506;SDS011;8366;51.020;7.642;2022-11-27T05:08:54;18.20;;;8.43;;
16506;SDS011;8366;51.020;7.642;2022-11-27T05:11:24;14.13;;;8.37;;
16506;SDS011;8366;51.020;7.642;2022-11-27T05:13:52;17.73;;;7.90;;
16506;SDS011;8366;51.020;7.642;2022-11-27T05:16:39;18.47;;;9.17;;
16506;SDS011;8366;51.020;7.642;2022-11-27T05:19:05;14.40;;;8.03;;
16506;SDS011;8366;51.020;7.642;2022-11-27T05:21:32;15.33;;;8.70;;
16506;SDS011;8366;51.020;7.642;2022-11-27T05:23:58;15.60;;;8.23;;
16506;SDS011;8366;51.020;7.642;2022-11-27T05:26:25;17.33;;;9.10;;
16506;SDS011;8366;51.020;7.642;2022-11-27T05:28:52;16.47;;;8.67;;
16506;SDS011;8366;51.020;7.642;2022-11-27T05:31:19;15.77;;;8.40;;
16506;SDS011;8366;51.020;7.642;2022-11-27T05:33:45;16.90;;;9.30;;
16506;SDS011;8366;51.020;7.642;2022-11-27T05:36:12;14.20;;;8.53;;
16506;SDS011;8366;51.020;7.642;2022-11-27T05:38:38;15.47;;;8.90;;
16506;SDS011;8366;51.020;7.642;2022-11-27T05:41:05;19.57;;;9.33;;
16506;SDS011;8366;51.020;7.642;2022-11-27T05:43:31;15.50;;;8.83;;
16506;SDS011;8366;51.020;7.642;2022-11-27T05:45:59;17.33;;;9.17;;
16506;SDS011;8366;51.020;7.642;2022-11-27T05:48:29;14.33;;;8.70;;
16506;SDS011;8366;51.020;7.642;2022-11-27T05:50:56;20.63;;;9.57;;
16506;SDS011;8366;51.020;7.642;2022-11-27T05:53:22;13.67;;;8.80;;
16506;SDS011;8366;51.020;7.642;2022-11-27T05:55:49;17.07;;;9.43;;
16506;SDS011;8366;51.020;7.642;2022-11-27T05:58:15;20.93;;;9.90;;
16506;SDS011;8366;51.020;7.642;2022-11-27T06:00:42;15.90;;;9.07;;
16506;SDS011;8366;51.020;7.642;2022-11-27T06:03:10;15.80;;;9.00;;
16506;SDS011;8366;51.020;7.642;2022-11-27T06:05:37;13.33;;;8.47;;
16506;SDS011;8366;51.020;7.642;2022-11-27T06:08:03;18.13;;;9.13;;
16506;SDS011;8366;51.020;7.642;2022-11-27T06:10:30;17.97;;;10.00;;
16506;SDS011;8366;51.020;7.642;2022-11-27T06:12:56;15.70;;;9.07;;
16506;SDS011;8366;51.020;7.642;2022-11-27T06:15:23;16.90;;;8.87;;
16506;SDS011;8366;51.020;7.642;2022-11-27T06:17:50;14.83;;;8.47;;
16506;SDS011;8366;51.020;7.642;2022-11-27T06:20:18;15.60;;;8.80;;
16506;SDS011;8366;51.020;7.642;2022-11-27T06:22:46;15.50;;;8.50;;
16506;SDS011;8366;51.020;7.642;2022-11-27T06:25:12;12.83;;;8.60;;
16506;SDS011;8366;51.020;7.642;2022-11-27T06:27:39;14.23;;;9.00;;
16506;SDS011;8366;51.020;7.642;2022-11-27T06:30:06;16.63;;;8.60;;
16506;SDS011;8366;51.020;7.642;2022-11-27T06:32:33;16.47;;;9.47;;
16506;SDS011;8366;51.020;7.642;2022-11-27T06:35:00;17.70;;;9.23;;
16506;SDS011;8366;51.020;7.642;2022-11-27T06:37:28;13.53;;;8.07;;
16506;SDS011;8366;51.020;7.642;2022-11-27T06:39:55;15.87;;;9.20;;
16506;SDS011;8366;51.020;7.642;2022-11-27T06:42:21;18.80;;;8.97;;
16506;SDS011;8366;51.020;7.642;2022-11-27T06:44:48;16.37;;;9.20;;
16506;SDS011;8366;51.020;7.642;2022-11-27T06:47:14;16.27;;;9.30;;
16506;SDS011;8366;51.020;7.642;2022-11-27T06:49:41;15.70;;;9.30;;
16506;SDS011;8366;51.020;7.642;2022-11-27T06:52:07;17.63;;;8.90;;
16506;SDS011;8366;51.020;7.642;2022-11-27T06:54:35;17.27;;;8.87;;
16506;SDS011;8366;51.020;7.642;2022-11-27T06:57:02;19.03;;;9.70;;
16506;SDS011;8366;51.020;7.642;2022-11-27T06:59:29;13.90;;;9.07;;
16506;SDS011;8366;51.020;7.642;2022-11-27T07:01:55;14.33;;;9.43;;
16506;SDS011;8366;51.020;7.642;2022-11-27T07:04:21;17.40;;;9.63;;
16506;SDS011;8366;51.020;7.642;2022-11-27T07:06:48;16.27;;;9.57;;
16506;SDS011;8366;51.020;7.642;2022-11-27T07:09:15;15.60;;;8.77;;
16506;SDS011;8366;51.020;7.642;2022-11-27T07:11:43;16.50;;;8.77;;
16506;SDS011;8366;51.020;7.642;2022-11-27T07:14:09;14.73;;;9.00;;
16506;SDS011;8366;51.020;7.642;2022-11-27T07:16:36;14.30;;;8.40;;
16506;SDS011;8366;51.020;7.642;2022-11-27T07:19:03;18.70;;;8.90;;
16506;SDS011;8366;51.020;7.642;2022-11-27T07:21:30;15.20;;;8.00;;
16506;SDS011;8366;51.020;7.642;2022-11-27T07:23:57;13.60;;;7.67;;
16506;SDS011;8366;51.020;7.642;2022-11-27T07:26:24;14.13;;;8.40;;
16506;SDS011;8366;51.020;7.642;2022-11-27T07:28:53;15.13;;;8.80;;
16506;SDS011;8366;51.020;7.642;2022-11-27T07:31:21;15.13;;;9.00;;
16506;SDS011;8366;51.020;7.642;2022-11-27T07:33:48;12.20;;;7.70;;
16506;SDS011;8366;51.020;7.642;2022-11-27T07:36:16;16.13;;;8.60;;
16506;SDS011;8366;51.020;7.642;2022-11-27T07:38:44;14.93;;;8.50;;
16506;SDS011;8366;51.020;7.642;2022-11-27T07:41:12;13.33;;;8.60;;
16506;SDS011;8366;51.020;7.642;2022-11-27T07:43:39;13.13;;;8.57;;
16506;SDS011;8366;51.020;7.642;2022-11-27T07:46:15;16.47;;;8.73;;
16506;SDS011;8366;51.020;7.642;2022-11-27T07:48:42;16.07;;;9.50;;
16506;SDS011;8366;51.020;7.642;2022-11-27T07:51:10;16.27;;;9.00;;
16506;SDS011;8366;51.020;7.642;2022-11-27T07:53:39;17.73;;;9.07;;
16506;SDS011;8366;51.020;7.642;2022-11-27T07:56:06;16.83;;;8.63;;
16506;SDS011;8366;51.020;7.642;2022-11-27T07:58:34;17.30;;;9.17;;
16506;SDS011;8366;51.020;7.642;2022-11-27T08:01:04;14.90;;;8.47;;
16506;SDS011;8366;51.020;7.642;2022-11-27T08:03:32;14.30;;;8.40;;
16506;SDS011;8366;51.020;7.642;2022-11-27T08:05:59;12.47;;;7.83;;
16506;SDS011;8366;51.020;7.642;2022-11-27T08:08:25;13.57;;;7.23;;
16506;SDS011;8366;51.020;7.642;2022-11-27T08:10:52;12.13;;;7.20;;
16506;SDS011;8366;51.020;7.642;2022-11-27T08:13:24;13.47;;;7.20;;
16506;SDS011;8366;51.020;7.642;2022-11-27T08:15:51;14.63;;;7.40;;
16506;SDS011;8366;51.020;7.642;2022-11-27T08:18:18;10.90;;;7.00;;
16506;SDS011;8366;51.020;7.642;2022-11-27T08:20:46;12.30;;;7.13;;
16506;SDS011;8366;51.020;7.642;2022-11-27T08:23:14;11.37;;;6.47;;
16506;SDS011;8366;51.020;7.642;2022-11-27T08:25:41;9.97;;;6.47;;
16506;SDS011;8366;51.020;7.642;2022-11-27T08:28:08;9.73;;;6.50;;
16506;SDS011;8366;51.020;7.642;2022-11-27T08:30:35;12.07;;;6.50;;
16506;SDS011;8366;51.020;7.642;2022-11-27T08:33:01;11.60;;;5.97;;
16506;SDS011;8366;51.020;7.642;2022-11-27T08:35:28;11.70;;;6.70;;
16506;SDS011;8366;51.020;7.642;2022-11-27T08:37:55;9.80;;;6.40;;
16506;SDS011;8366;51.020;7.642;2022-11-27T08:40:22;12.10;;;6.23;;
16506;SDS011;8366;51.020;7.642;2022-11-27T08:42:48;9.87;;;6.53;;
16506;SDS011;8366;51.020;7.642;2022-11-27T08:45:15;12.13;;;6.30;;
16506;SDS011;8366;51.020;7.642;2022-11-27T08:47:41;11.63;;;6.53;;
16506;SDS011;8366;51.020;7.642;2022-11-27T08:50:08;12.97;;;6.17;;
16506;SDS011;8366;51.020;7.642;2022-11-27T08:52:35;13.17;;;6.17;;
16506;SDS011;8366;51.020;7.642;2022-11-27T08:55:03;9.53;;;5.83;;
16506;SDS011;8366;51.020;7.642;2022-11-27T08:57:30;8.90;;;5.60;;
16506;SDS011;8366;51.020;7.642;2022-11-27T08:59:56;10.77;;;6.07;;
16506;SDS011;8366;51.020;7.642;2022-11-27T09:02:23;13.30;;;5.83;;
16506;SDS011;8366;51.020;7.642;2022-11-27T09:04:49;10.47;;;5.60;;
16506;SDS011;8366;51.020;7.642;2022-11-27T09:07:16;9.97;;;5.30;;
16506;SDS011;8366;51.020;7.642;2022-11-27T09:09:42;12.67;;;5.33;;
16506;SDS011;8366;51.020;7.642;2022-11-27T09:12:10;7.93;;;4.93;;
16506;SDS011;8366;51.020;7.642;2022-11-27T09:14:37;8.40;;;4.97;;
16506;SDS011;8366;51.020;7.642;2022-11-27T09:17:04;7.43;;;4.43;;
16506;SDS011;8366;51.020;7.642;2022-11-27T09:19:30;9.20;;;4.90;;
16506;SDS011;8366;51.020;7.642;2022-11-27T09:21:57;6.93;;;4.70;;
16506;SDS011;8366;51.020;7.642;2022-11-27T09:24:23;9.87;;;4.97;;
16506;SDS011;8366;51.020;7.642;2022-11-27T09:26:50;9.17;;;4.57;;
16506;SDS011;8366;51.020;7.642;2022-11-27T09:29:18;8.57;;;4.10;;
16506;SDS011;8366;51.020;7.642;2022-11-27T09:31:44;7.13;;;4.30;;
16506;SDS011;8366;51.020;7.642;2022-11-27T09:34:11;10.17;;;4.53;;
16506;SDS011;8366;51.020;7.642;2022-11-27T09:36:37;7.43;;;3.93;;
16506;SDS011;8366;51.020;7.642;2022-11-27T09:39:06;7.17;;;3.90;;
16506;SDS011;8366;51.020;7.642;2022-11-27T09:41:48;8.70;;;4.13;;
16506;SDS011;8366;51.020;7.642;2022-11-27T09:44:22;6.13;;;3.67;;
16506;SDS011;8366;51.020;7.642;2022-11-27T09:46:50;6.70;;;3.63;;
16506;SDS011;8366;51.020;7.642;2022-11-27T09:49:21;5.07;;;3.67;;
16506;SDS011;8366;51.020;7.642;2022-11-27T09:51:50;6.07;;;3.90;;
16506;SDS011;8366;51.020;7.642;2022-11-27T09:54:19;4.67;;;3.33;;
16506;SDS011;8366;51.020;7.642;2022-11-27T09:56:50;5.03;;;3.37;;
16506;SDS011;8366;51.020;7.642;2022-11-27T09:59:18;6.73;;;3.40;;
16506;SDS011;8366;51.020;7.642;2022-11-27T10:01:46;6.13;;;3.23;;
16506;SDS011;8366;51.020;7.642;2022-11-27T10:04:14;5.17;;;3.17;;
16506;SDS011;8366;51.020;7.642;2022-11-27T10:06:44;5.47;;;3.20;;
16506;SDS011;8366;51.020;7.642;2022-11-27T10:09:23;5.77;;;3.17;;
16506;SDS011;8366;51.020;7.642;2022-11-27T10:11:55;6.43;;;3.27;;
16506;SDS011;8366;51.020;7.642;2022-11-27T10:16:58;6.27;;;3.60;;
16506;SDS011;8366;51.020;7.642;2022-11-27T10:19:30;6.00;;;3.53;;
16506;SDS011;8366;51.020;7.642;2022-11-27T10:22:01;6.33;;;3.60;;
16506;SDS011;8366;51.020;7.642;2022-11-27T10:24:32;4.77;;;3.30;;
16506;SDS011;8366;51.020;7.642;2022-11-27T10:27:08;6.20;;;3.20;;
16506;SDS011;8366;51.020;7.642;2022-11-27T10:29:40;9.37;;;3.50;;
16506;SDS011;8366;51.020;7.642;2022-11-27T10:32:12;7.77;;;3.53;;
16506;SDS011;8366;51.020;7.642;2022-11-27T10:34:40;5.83;;;3.80;;
16506;SDS011;8366;51.020;7.642;2022-11-27T10:37:11;7.47;;;3.40;;
16506;SDS011;8366;51.020;7.642;2022-11-27T10:39:41;4.87;;;3.50;;
16506;SDS011;8366;51.020;7.642;2022-11-27T10:42:12;7.23;;;4.40;;
16506;SDS011;8366;51.020;7.642;2022-11-27T10:44:43;7.10;;;4.00;;
16506;SDS011;8366;51.020;7.642;2022-11-27T10:47:13;5.73;;;3.53;;
16506;SDS011;8366;51.020;7.642;2022-11-27T10:49:42;6.10;;;3.93;;
16506;SDS011;8366;51.020;7.642;2022-11-27T10:52:12;5.67;;;3.50;;
16506;SDS011;8366;51.020;7.642;2022-11-27T10:54:39;6.43;;;3.40;;
16506;SDS011;8366;51.020;7.642;2022-11-27T10:57:10;6.97;;;3.57;;
16506;SDS011;8366;51.020;7.642;2022-11-27T10:59:44;7.33;;;4.13;;
16506;SDS011;8366;51.020;7.642;2022-11-27T11:02:28;7.43;;;3.43;;
16506;SDS011;8366;51.020;7.642;2022-11-27T11:04:56;5.90;;;3.63;;
16506;SDS011;8366;51.020;7.642;2022-11-27T11:07:23;5.73;;;3.17;;
16506;SDS011;8366;51.020;7.642;2022-11-27T11:09:51;7.33;;;3.80;;
16506;SDS011;8366;51.020;7.642;2022-11-27T11:12:19;5.20;;;3.20;;
16506;SDS011;8366;51.020;7.642;2022-11-27T11:14:50;6.70;;;3.27;;
16506;SDS011;8366;51.020;7.642;2022-11-27T11:17:21;6.30;;;3.50;;
16506;SDS011;8366;51.020;7.642;2022-11-27T11:19:51;3.67;;;2.87;;
16506;SDS011;8366;51.020;7.642;2022-11-27T11:22:18;7.77;;;3.17;;
16506;SDS011;8366;51.020;7.642;2022-11-27T11:24:45;6.47;;;2.83;;
16506;SDS011;8366;51.020;7.642;2022-11-27T11:27:14;6.33;;;3.00;;
16506;SDS011;8366;51.020;7.642;2022-11-27T11:29:44;4.87;;;3.00;;
16506;SDS011;8366;51.020;7.642;2022-11-27T11:32:13;7.07;;;2.90;;
16506;SDS011;8366;51.020;7.642;2022-11-27T11:34:42;5.67;;;3.00;;
16506;SDS011;8366;51.020;7.642;2022-11-27T11:37:24;5.97;;;3.20;;
16506;SDS011;8366;51.020;7.642;2022-11-27T11:39:52;4.53;;;2.80;;
16506;SDS011;8366;51.020;7.642;2022-11-27T11:42:21;2.93;;;2.40;;
16506;SDS011;8366;51.020;7.642;2022-11-27T11:44:50;6.97;;;2.93;;
16506;SDS011;8366;51.020;7.642;2022-11-27T11:47:18;3.80;;;2.77;;
16506;SDS011;8366;51.020;7.642;2022-11-27T11:49:47;5.67;;;2.90;;
16506;SDS011;8366;51.020;7.642;2022-11-27T11:52:16;5.60;;;2.73;;
16506;SDS011;8366;51.020;7.642;2022-11-27T11:54:49;4.10;;;2.37;;
16506;SDS011;8366;51.020;7.642;2022-11-27T11:57:27;4.47;;;2.60;;
16506;SDS011;8366;51.020;7.642;2022-11-27T12:00:19;5.03;;;2.60;;
16506;SDS011;8366;51.020;7.642;2022-11-27T12:02:54;4.10;;;2.43;;
16506;SDS011;8366;51.020;7.642;2022-11-27T12:05:33;5.57;;;2.30;;
16506;SDS011;8366;51.020;7.642;2022-11-27T12:10:53;3.97;;;2.23;;
16506;SDS011;8366;51.020;7.642;2022-11-27T12:13:32;5.73;;;2.43;;
16506;SDS011;8366;51.020;7.642;2022-11-27T12:16:05;4.03;;;2.50;;
16506;SDS011;8366;51.020;7.642;2022-11-27T12:18:39;6.20;;;2.70;;
16506;SDS011;8366;51.020;7.642;2022-11-27T12:21:12;3.93;;;2.10;;
16506;SDS011;8366;51.020;7.642;2022-11-27T12:23:47;4.23;;;2.33;;
16506;SDS011;8366;51.020;7.642;2022-11-27T12:26:24;4.97;;;2.20;;
16506;SDS011;8366;51.020;7.642;2022-11-27T12:29:01;3.03;;;2.50;;
16506;SDS011;8366;51.020;7.642;2022-11-27T12:31:37;5.40;;;2.57;;
16506;SDS011;8366;51.020;7.642;2022-11-27T12:34:11;4.83;;;2.50;;
16506;SDS011;8366;51.020;7.642;2022-11-27T12:36:46;5.03;;;2.57;;
16506;SDS011;8366;51.020;7.642;2022-11-27T12:39:22;4.17;;;2.90;;
16506;SDS011;8366;51.020;7.642;2022-11-27T12:42:03;5.60;;;2.40;;
16506;SDS011;8366;51.020;7.642;2022-11-27T12:44:45;5.30;;;2.33;;
16506;SDS011;8366;51.020;7.642;2022-11-27T12:47:20;4.50;;;2.23;;
16506;SDS011;8366;51.020;7.642;2022-11-27T12:49:49;3.10;;;2.23;;
16506;SDS011;8366;51.020;7.642;2022-11-27T12:52:20;3.33;;;2.13;;
16506;SDS011;8366;51.020;7.642;2022-11-27T12:54:49;5.87;;;3.00;;
16506;SDS011;8366;51.020;7.642;2022-11-27T12:57:19;5.67;;;3.30;;
16506;SDS011;8366;51.020;7.642;2022-11-27T12:59:49;5.53;;;2.60;;
16506;SDS011;8366;51.020;7.642;2022-11-27T13:02:27;4.17;;;2.80;;
16506;SDS011;8366;51.020;7.642;2022-11-27T13:04:56;4.40;;;3.07;;
16506;SDS011;8366;51.020;7.642;2022-11-27T13:07:25;3.77;;;2.70;;
16506;SDS011;8366;51.020;7.642;2022-11-27T13:09:55;5.67;;;3.03;;
16506;SDS011;8366;51.020;7.642;2022-11-27T13:12:27;6.57;;;2.90;;
16506;SDS011;8366;51.020;7.642;2022-11-27T13:14:59;6.33;;;3.13;;
16506;SDS011;8366;51.020;7.642;2022-11-27T13:17:32;4.70;;;2.80;;
16506;SDS011;8366;51.020;7.642;2022-11-27T13:20:00;3.60;;;2.47;;
16506;SDS011;8366;51.020;7.642;2022-11-27T13:22:31;5.57;;;3.40;;
16506;SDS011;8366;51.020;7.642;2022-11-27T13:25:00;4.00;;;2.97;;
16506;SDS011;8366;51.020;7.642;2022-11-27T13:27:29;4.50;;;2.63;;
16506;SDS011;8366;51.020;7.642;2022-11-27T13:29:58;5.00;;;3.30;;
16506;SDS011;8366;51.020;7.642;2022-11-27T13:32:27;4.90;;;3.23;;
16506;SDS011;8366;51.020;7.642;2022-11-27T13:34:56;5.13;;;3.50;;
16506;SDS011;8366;51.020;7.642;2022-11-27T13:37:25;7.20;;;3.63;;
16506;SDS011;8366;51.020;7.642;2022-11-27T13:40:00;5.27;;;3.47;;
16506;SDS011;8366;51.020;7.642;2022-11-27T13:42:30;12.13;;;6.40;;
16506;SDS011;8366;51.020;7.642;2022-11-27T13:45:03;6.23;;;3.67;;
16506;SDS011;8366;51.020;7.642;2022-11-27T13:47:34;6.67;;;3.80;;
16506;SDS011;8366;51.020;7.642;2022-11-27T13:50:04;7.70;;;3.90;;
16506;SDS011;8366;51.020;7.642;2022-11-27T13:52:33;7.60;;;3.93;;
16506;SDS011;8366;51.020;7.642;2022-11-27T13:55:01;6.20;;;4.10;;
16506;SDS011;8366;51.020;7.642;2022-11-27T13:57:31;7.37;;;3.77;;
16506;SDS011;8366;51.020;7.642;2022-11-27T13:59:59;7.93;;;4.00;;
16506;SDS011;8366;51.020;7.642;2022-11-27T14:02:38;6.90;;;3.67;;
16506;SDS011;8366;51.020;7.642;2022-11-27T14:05:06;6.87;;;3.80;;
16506;SDS011;8366;51.020;7.642;2022-11-27T14:07:37;7.10;;;3.97;;
16506;SDS011;8366;51.020;7.642;2022-11-27T14:10:05;5.47;;;3.40;;
16506;SDS011;8366;51.020;7.642;2022-11-27T14:12:35;5.80;;;3.43;;
16506;SDS011;8366;51.020;7.642;2022-11-27T14:15:04;5.97;;;3.73;;
16506;SDS011;8366;51.020;7.642;2022-11-27T14:17:34;6.73;;;4.00;;
16506;SDS011;8366;51.020;7.642;2022-11-27T14:20:03;8.07;;;4.30;;
16506;SDS011;8366;51.020;7.642;2022-11-27T14:22:34;5.83;;;3.53;;
16506;SDS011;8366;51.020;7.642;2022-11-27T14:25:15;5.60;;;3.50;;
16506;SDS011;8366;51.020;7.642;2022-11-27T14:27:47;6.00;;;4.20;;
16506;SDS011;8366;51.020;7.642;2022-11-27T14:30:20;8.37;;;4.07;;
16506;SDS011;8366;51.020;7.642;2022-11-27T14:32:50;5.73;;;3.70;;
16506;SDS011;8366;51.020;7.642;2022-11-27T14:35:18;8.37;;;3.70;;
16506;SDS011;8366;51.020;7.642;2022-11-27T14:37:45;5.23;;;3.53;;
16506;SDS011;8366;51.020;7.642;2022-11-27T14:40:13;7.20;;;4.07;;
16506;SDS011;8366;51.020;7.642;2022-11-27T14:42:40;8.73;;;4.67;;
16506;SDS011;8366;51.020;7.642;2022-11-27T14:45:09;4.73;;;3.40;;
16506;SDS011;8366;51.020;7.642;2022-11-27T14:47:39;5.77;;;3.37;;
16506;SDS011;8366;51.020;7.642;2022-11-27T14:50:14;5.60;;;2.90;;
16506;SDS011;8366;51.020;7.642;2022-11-27T14:52:41;6.67;;;3.80;;
16506;SDS011;8366;51.020;7.642;2022-11-27T14:55:11;6.50;;;3.80;;
16506;SDS011;8366;51.020;7.642;2022-11-27T14:57:41;5.80;;;3.67;;
16506;SDS011;8366;51.020;7.642;2022-11-27T15:00:17;5.23;;;3.77;;
16506;SDS011;8366;51.020;7.642;2022-11-27T15:02:46;7.33;;;3.60;;
16506;SDS011;8366;51.020;7.642;2022-11-27T15:05:18;4.33;;;3.40;;
16506;SDS011;8366;51.020;7.642;2022-11-27T15:07:47;9.00;;;6.27;;
16506;SDS011;8366;51.020;7.642;2022-11-27T15:10:17;6.97;;;3.70;;
16506;SDS011;8366;51.020;7.642;2022-11-27T15:12:46;5.70;;;3.53;;
16506;SDS011;8366;51.020;7.642;2022-11-27T15:15:14;5.50;;;3.50;;
16506;SDS011;8366;51.020;7.642;2022-11-27T15:17:46;5.70;;;3.60;;